Time;durP1;ratioP1;P1;durP2;ratioP2;P2;SDS_P1;SDS_P2;PMS_P1;PMS_P2;Temp;Humidity;BMP_temperature;BMP_pressure;BME280_temperature;BME280_humidity;BME280_pressure;Samples;Min_cycle;Max_cycle;Signal;HPM_P1;HPM_P2
2022/11/29 00:01:29;;;;;;;163.80;22.25;;;8.80;99.90;;;;;;5097886;27;20059;-83
2022/11/29 00:03:55;;;;;;;141.63;21.75;;;8.10;99.90;;;;;;5133500;27;20058;-84
2022/11/29 00:06:28;;;;;;;137.02;20.90;;;7.60;99.90;;;;;;5133532;27;20088;-86
2022/11/29 00:08:56;;;;;;;298.02;27.25;;;7.20;99.90;;;;;;5133306;27;20566;-84
2022/11/29 00:14:14;;;;;;;294.58;27.40;;;7.00;99.90;;;;;;5132910;27;20138;-83
2022/11/29 00:16:41;;;;;;;300.88;27.38;;;7.30;99.90;;;;;;5114758;27;20119;-83
2022/11/29 00:19:08;;;;;;;227.05;22.60;;;7.40;99.90;;;;;;5136268;27;20039;-85
2022/11/29 00:21:34;;;;;;;418.30;31.48;;;7.10;99.90;;;;;;5139014;27;20406;-84
2022/11/29 00:23:59;;;;;;;156.25;22.02;;;6.90;99.90;;;;;;5117894;27;20051;-85
2022/11/29 00:26:25;;;;;;;243.02;26.05;;;7.30;99.90;;;;;;5133049;27;20039;-84
2022/11/29 00:28:51;;;;;;;305.60;27.38;;;8.10;99.90;;;;;;5132413;28;20051;-82
2022/11/29 00:31:25;;;;;;;165.27;21.52;;;7.30;99.90;;;;;;5132800;27;20451;-82
2022/11/29 00:33:51;;;;;;;306.73;29.52;;;7.10;99.90;;;;;;5133087;28;20050;-83
2022/11/29 00:36:18;;;;;;;161.88;23.98;;;7.20;99.90;;;;;;5132760;27;20114;-83
2022/11/29 00:38:44;;;;;;;277.30;27.50;;;7.20;99.90;;;;;;5132333;27;20126;-82
2022/11/29 00:41:10;;;;;;;201.25;25.42;;;7.40;99.90;;;;;;5132655;28;20047;-81
2022/11/29 00:43:36;;;;;;;179.35;24.00;;;7.00;99.90;;;;;;5132632;28;20047;-81
2022/11/29 00:46:02;;;;;;;220.00;25.63;;;8.00;99.90;;;;;;5132778;27;20447;-81
2022/11/29 00:48:29;;;;;;;136.45;23.40;;;7.20;99.90;;;;;;5132542;27;20352;-81
2022/11/29 00:50:54;;;;;;;62.15;20.85;;;7.40;99.90;;;;;;5136683;27;20068;-80
2022/11/29 00:53:20;;;;;;;203.80;25.02;;;7.20;99.90;;;;;;5118664;27;20599;-80
2022/11/29 00:55:50;;;;;;;161.02;24.90;;;7.10;99.90;;;;;;5136846;27;20563;-81
2022/11/29 00:58:16;;;;;;;258.23;28.27;;;7.20;99.90;;;;;;5136838;27;20051;-81
2022/11/29 01:00:42;;;;;;;192.43;26.10;;;7.60;99.90;;;;;;5136626;27;20074;-81
2022/11/29 01:03:07;;;;;;;354.42;30.23;;;7.60;99.90;;;;;;5118604;27;20104;-79
2022/11/29 01:05:33;;;;;;;128.80;23.15;;;6.80;99.90;;;;;;5136493;27;20053;-80
2022/11/29 01:07:59;;;;;;;305.27;29.42;;;6.80;99.90;;;;;;5136071;27;20047;-81
2022/11/29 01:10:25;;;;;;;93.85;22.20;;;7.10;99.90;;;;;;5136650;27;20043;-81
2022/11/29 01:12:50;;;;;;;164.35;24.83;;;7.10;99.90;;;;;;5136588;27;20390;-80
2022/11/29 01:15:16;;;;;;;110.97;23.35;;;6.90;99.90;;;;;;5136555;27;20069;-80
2022/11/29 01:17:42;;;;;;;93.95;22.50;;;7.10;99.90;;;;;;5136414;27;20043;-80
2022/11/29 01:20:10;;;;;;;127.20;24.98;;;6.60;99.90;;;;;;5118239;27;20058;-81
2022/11/29 01:22:36;;;;;;;108.22;22.33;;;6.80;99.90;;;;;;5100838;27;20053;-80
2022/11/29 01:25:03;;;;;;;116.10;23.85;;;6.60;99.90;;;;;;5136313;27;20119;-80
2022/11/29 01:27:29;;;;;;;165.82;25.88;;;6.80;99.90;;;;;;5136086;27;20047;-80
2022/11/29 01:29:54;;;;;;;100.20;22.00;;;7.40;99.90;;;;;;5136212;27;20145;-80
2022/11/29 01:32:20;;;;;;;135.18;23.55;;;7.80;99.90;;;;;;5136204;27;20503;-79
2022/11/29 01:34:46;;;;;;;153.65;25.52;;;6.70;99.90;;;;;;5117965;27;20086;-79
2022/11/29 01:37:11;;;;;;;130.82;24.58;;;6.60;99.90;;;;;;5135789;27;20051;-80
2022/11/29 01:39:37;;;;;;;123.75;24.98;;;6.90;99.90;;;;;;5117798;27;20159;-81
2022/11/29 01:42:03;;;;;;;95.07;23.25;;;6.40;99.90;;;;;;5117709;27;20050;-80
2022/11/29 01:44:29;;;;;;;59.92;21.33;;;6.90;99.90;;;;;;5135861;27;20043;-80
2022/11/29 01:46:56;;;;;;;102.35;21.85;;;8.30;99.90;;;;;;5135867;27;20651;-80
2022/11/29 01:49:34;;;;;;;105.38;23.13;;;6.60;99.90;;;;;;5117417;27;20074;-79
2022/11/29 01:52:11;;;;;;;100.68;22.25;;;7.50;99.90;;;;;;5135604;27;20376;-79
2022/11/29 01:54:40;;;;;;;61.92;20.75;;;6.50;99.90;;;;;;5117519;27;20109;-78
2022/11/29 01:57:08;;;;;;;75.63;21.13;;;6.80;99.90;;;;;;5135601;27;20414;-79
2022/11/29 01:59:36;;;;;;;82.35;21.02;;;7.10;99.90;;;;;;5117051;27;20403;-79
2022/11/29 02:02:07;;;;;;;80.90;21.80;;;6.80;99.90;;;;;;5135501;27;20062;-78
2022/11/29 02:04:34;;;;;;;105.30;23.23;;;7.60;99.90;;;;;;5135268;27;20486;-78
2022/11/29 02:07:00;;;;;;;95.25;24.33;;;6.80;99.90;;;;;;5117018;27;20068;-78
2022/11/29 02:09:25;;;;;;;90.60;21.88;;;7.30;99.90;;;;;;5135073;27;20395;-78
2022/11/29 02:12:03;;;;;;;76.95;20.65;;;7.80;99.90;;;;;;5117174;27;20050;-79
2022/11/29 02:14:32;;;;;;;109.10;24.48;;;6.50;99.90;;;;;;5135149;27;20495;-79
2022/11/29 02:17:06;;;;;;;62.45;20.08;;;6.50;99.90;;;;;;5135208;27;20062;-79
2022/11/29 02:20:10;;;;;;;82.00;22.45;;;6.40;99.90;;;;;;5117139;27;20049;-79
2022/11/29 02:22:58;;;;;;;104.72;24.33;;;6.50;99.90;;;;;;5135167;27;20143;-79
2022/11/29 02:26:17;;;;;;;89.18;22.70;;;6.70;99.90;;;;;;5116969;27;20055;-80
2022/11/29 02:29:20;;;;;;;66.55;20.42;;;6.50;99.90;;;;;;5134705;27;20112;-79
2022/11/29 02:32:00;;;;;;;63.90;20.13;;;6.90;99.90;;;;;;5116779;27;20445;-79
2022/11/29 02:34:43;;;;;;;87.30;22.30;;;6.80;99.90;;;;;;5134787;27;20461;-80
2022/11/29 02:37:27;;;;;;;59.53;20.42;;;6.30;99.90;;;;;;5134892;27;20050;-80
2022/11/29 02:40:12;;;;;;;56.28;19.65;;;6.70;99.90;;;;;;5134908;27;20376;-81
2022/11/29 02:43:19;;;;;;;80.35;21.85;;;6.50;99.90;;;;;;5134822;27;20082;-80
2022/11/29 02:46:06;;;;;;;81.20;22.98;;;6.40;99.90;;;;;;5134870;27;20090;-80
2022/11/29 02:48:32;;;;;;;56.28;20.23;;;6.50;99.90;;;;;;5134984;27;20041;-79
2022/11/29 02:51:26;;;;;;;56.80;20.25;;;7.00;99.90;;;;;;5134121;27;20055;-79
2022/11/29 02:54:00;;;;;;;53.63;20.63;;;6.80;99.90;;;;;;5116223;27;20059;-80
2022/11/29 02:56:50;;;;;;;51.13;19.30;;;7.60;99.90;;;;;;5134493;27;20079;-80
2022/11/29 02:59:45;;;;;;;45.88;19.48;;;6.70;99.90;;;;;;5116284;27;20142;-80
2022/11/29 03:02:47;;;;;;;71.68;20.65;;;6.50;99.90;;;;;;5134824;27;20065;-80
2022/11/29 03:05:15;;;;;;;68.68;20.95;;;7.20;99.90;;;;;;5116090;27;20141;-81
2022/11/29 03:07:59;;;;;;;49.65;19.67;;;6.40;99.90;;;;;;5134186;27;20093;-83
2022/11/29 03:10:38;;;;;;;66.20;20.85;;;6.60;99.90;;;;;;5134309;27;20114;-83
2022/11/29 03:13:13;;;;;;;66.53;20.02;;;6.70;99.90;;;;;;5133359;27;20047;-83
2022/11/29 03:15:48;;;;;;;48.65;18.75;;;6.60;99.90;;;;;;5134239;27;20047;-83
2022/11/29 03:18:32;;;;;;;51.35;19.55;;;7.10;99.90;;;;;;5133845;27;20047;-81
2022/11/29 03:21:23;;;;;;;77.95;20.73;;;6.10;99.90;;;;;;5134097;27;20150;-81
2022/11/29 03:23:59;;;;;;;65.15;20.40;;;6.70;99.90;;;;;;5115842;27;20078;-81
2022/11/29 03:26:48;;;;;;;59.92;19.98;;;6.60;99.90;;;;;;5133997;27;20130;-81
2022/11/29 03:29:28;;;;;;;54.15;18.92;;;6.60;99.90;;;;;;5133727;27;20063;-80
2022/11/29 03:32:23;;;;;;;60.92;20.00;;;6.40;99.90;;;;;;5133856;27;20103;-80
2022/11/29 03:35:04;;;;;;;58.80;18.15;;;6.30;99.90;;;;;;5087779;27;20055;-79
2022/11/29 03:38:12;;;;;;;48.50;18.23;;;6.50;99.90;;;;;;5133681;27;20609;-79
2022/11/29 03:40:46;;;;;;;59.58;19.13;;;6.40;99.90;;;;;;5085115;27;20062;-79
2022/11/29 03:43:19;;;;;;;61.35;19.80;;;6.40;99.90;;;;;;5115503;27;20101;-79
2022/11/29 03:46:05;;;;;;;52.72;18.08;;;6.50;99.90;;;;;;5133591;27;20050;-79
2022/11/29 03:48:44;;;;;;;51.95;17.98;;;7.10;99.90;;;;;;5133251;27;20055;-79
2022/11/29 03:51:40;;;;;;;41.00;16.92;;;6.40;99.90;;;;;;5133542;27;20055;-80
2022/11/29 03:54:14;;;;;;;48.47;17.77;;;6.50;99.90;;;;;;5115228;27;20055;-80
2022/11/29 03:56:40;;;;;;;40.63;18.10;;;6.50;99.90;;;;;;5133496;27;20570;-80
2022/11/29 03:59:15;;;;;;;35.30;16.35;;;6.40;99.90;;;;;;5098217;28;20509;-80
2022/11/29 04:02:07;;;;;;;51.50;18.17;;;6.40;99.90;;;;;;5133178;27;20055;-81
2022/11/29 04:05:30;;;;;;;47.15;17.80;;;6.30;99.90;;;;;;5132306;27;20090;-81
2022/11/29 04:08:37;;;;;;;65.90;18.55;;;6.10;99.90;;;;;;4996691;28;20056;-81
2022/11/29 04:11:24;;;;;;;50.20;17.58;;;6.20;99.90;;;;;;5020117;28;20065;-81
2022/11/29 04:14:23;;;;;;;50.92;17.83;;;6.40;99.90;;;;;;5121688;27;20058;-82
2022/11/29 04:17:26;;;;;;;46.70;17.00;;;6.30;99.90;;;;;;5114698;27;20390;-81
2022/11/29 04:20:03;;;;;;;45.13;16.63;;;6.20;99.90;;;;;;5133065;27;20051;-81
2022/11/29 04:22:38;;;;;;;40.50;17.02;;;6.30;99.90;;;;;;5133029;27;20043;-81
2022/11/29 04:25:32;;;;;;;46.47;17.95;;;6.10;99.90;;;;;;5132678;27;20483;-80
2022/11/29 04:28:09;;;;;;;59.38;19.25;;;5.90;99.90;;;;;;5132815;27;20061;-80
2022/11/29 04:30:57;;;;;;;63.78;18.70;;;6.10;99.90;;;;;;5132763;28;20094;-80
2022/11/29 04:34:00;;;;;;;64.50;20.65;;;6.00;99.90;;;;;;5132969;28;20054;-80
2022/11/29 04:36:35;;;;;;;44.58;17.33;;;5.90;99.90;;;;;;5132904;28;20043;-80
2022/11/29 04:39:28;;;;;;;64.60;19.00;;;6.20;99.90;;;;;;5132996;28;20046;-81
2022/11/29 04:42:05;;;;;;;50.08;17.92;;;6.10;99.90;;;;;;5133132;28;20043;-81
2022/11/29 04:44:37;;;;;;;46.10;17.23;;;7.20;99.90;;;;;;5132972;28;20131;-82
2022/11/29 04:47:40;;;;;;;52.58;17.63;;;6.40;99.90;;;;;;5114487;28;20784;-81
2022/11/29 04:50:20;;;;;;;65.20;18.08;;;6.20;99.90;;;;;;5132734;28;20130;-82
2022/11/29 04:53:05;;;;;;;63.33;19.10;;;5.90;99.90;;;;;;5132802;28;20087;-81
2022/11/29 04:55:48;;;;;;;53.88;17.75;;;5.80;99.90;;;;;;5132823;27;20050;-81
2022/11/29 04:58:51;;;;;;;55.70;18.25;;;6.20;99.90;;;;;;5132816;28;20043;-82
2022/11/29 05:01:44;;;;;;;54.50;19.42;;;6.10;99.90;;;;;;5114215;28;20050;-82
2022/11/29 05:04:19;;;;;;;60.75;19.00;;;5.90;99.90;;;;;;5132721;28;20051;-81
2022/11/29 05:07:10;;;;;;;67.55;19.45;;;6.30;99.90;;;;;;5132659;28;20455;-81
2022/11/29 05:09:48;;;;;;;62.30;19.13;;;6.10;99.90;;;;;;5132607;28;20043;-82
2022/11/29 05:12:48;;;;;;;60.65;19.33;;;7.50;99.90;;;;;;5132567;28;20081;-81
2022/11/29 05:15:39;;;;;;;54.40;18.13;;;6.20;99.90;;;;;;5114021;28;20402;-82
2022/11/29 05:18:26;;;;;;;60.50;19.58;;;6.30;99.90;;;;;;5132624;28;20044;-82
2022/11/29 05:21:33;;;;;;;50.80;19.02;;;6.50;99.90;;;;;;5132514;28;20058;-81
2022/11/29 05:24:20;;;;;;;63.88;20.05;;;6.00;99.90;;;;;;5029067;28;20565;-82
2022/11/29 05:26:59;;;;;;;47.45;18.55;;;6.20;99.90;;;;;;5028856;28;20045;-82
2022/11/29 05:29:49;;;;;;;55.75;18.98;;;6.50;99.90;;;;;;5100263;28;20399;-81
2022/11/29 05:32:52;;;;;;;57.92;18.80;;;6.10;99.90;;;;;;5115418;28;20134;-82
2022/11/29 05:35:52;;;;;;;53.60;18.08;;;6.40;99.90;;;;;;5133348;27;20049;-83
2022/11/29 05:38:56;;;;;;;52.30;19.10;;;6.20;99.90;;;;;;5100932;27;20039;-83
2022/11/29 05:41:44;;;;;;;61.20;18.98;;;6.40;99.90;;;;;;5136012;27;20054;-82
2022/11/29 05:44:30;;;;;;;56.75;18.70;;;6.30;99.90;;;;;;5135490;27;20049;-82
2022/11/29 05:47:00;;;;;;;48.40;17.98;;;6.20;99.90;;;;;;5135921;27;20046;-83
2022/11/29 05:49:52;;;;;;;54.03;18.95;;;6.60;99.90;;;;;;5136087;27;20094;-83
2022/11/29 05:52:21;;;;;;;42.53;17.65;;;6.20;99.90;;;;;;5135821;27;20399;-82
2022/11/29 05:55:12;;;;;;;60.97;18.88;;;6.80;99.90;;;;;;5135678;27;20047;-83
2022/11/29 05:57:50;;;;;;;54.58;18.48;;;6.60;99.90;;;;;;5135476;27;20043;-83
2022/11/29 06:00:17;;;;;;;63.25;18.20;;;6.30;99.90;;;;;;5135769;27;20051;-83
2022/11/29 06:03:20;;;;;;;61.40;19.35;;;6.60;99.90;;;;;;5117438;27;20557;-83
2022/11/29 06:05:49;;;;;;;61.45;18.83;;;6.50;99.90;;;;;;5078478;27;20433;-83
2022/11/29 06:08:31;;;;;;;60.45;17.63;;;7.30;99.90;;;;;;5135401;27;20505;-83
2022/11/29 06:11:15;;;;;;;66.45;18.77;;;6.50;99.90;;;;;;5135514;27;20468;-83
2022/11/29 06:13:59;;;;;;;57.03;17.77;;;6.80;99.90;;;;;;5135053;27;20043;-82
2022/11/29 06:17:01;;;;;;;62.45;17.45;;;6.80;99.90;;;;;;5135449;27;20130;-82
2022/11/29 06:19:47;;;;;;;55.58;17.13;;;6.90;99.90;;;;;;5135337;27;20043;-82
2022/11/29 06:22:22;;;;;;;57.45;17.35;;;7.20;99.90;;;;;;5116919;27;20051;-82
2022/11/29 06:25:11;;;;;;;61.05;16.40;;;7.70;99.90;;;;;;5135190;27;20061;-83
2022/11/29 06:27:57;;;;;;;55.38;17.65;;;6.80;99.90;;;;;;5099633;27;20042;-82
2022/11/29 06:30:35;;;;;;;47.15;13.45;;;6.80;99.90;;;;;;5128630;27;20538;-82
2022/11/29 06:33:22;;;;;;;50.72;13.35;;;7.20;99.90;;;;;;5135281;27;20051;-83
2022/11/29 06:36:26;;;;;;;50.28;14.15;;;6.90;99.90;;;;;;5136209;27;20434;-82
2022/11/29 06:38:52;;;;;;;42.80;12.88;;;7.10;99.90;;;;;;5153698;27;20042;-83
2022/11/29 06:41:21;;;;;;;44.10;13.18;;;7.00;99.90;;;;;;5119200;27;20049;-83
2022/11/29 06:43:47;;;;;;;39.28;12.25;;;7.00;99.90;;;;;;5135272;27;20487;-83
2022/11/29 06:46:21;;;;;;;43.17;13.23;;;6.80;99.90;;;;;;5154806;27;20046;-82
2022/11/29 06:49:06;;;;;;;42.50;12.30;;;6.90;99.90;;;;;;5135439;27;20035;-82
2022/11/29 06:52:16;;;;;;;43.10;12.75;;;7.30;99.90;;;;;;5154237;27;20054;-82
2022/11/29 06:55:08;;;;;;;31.77;11.85;;;7.20;99.90;;;;;;5120748;27;20055;-82
2022/11/29 06:57:54;;;;;;;46.40;13.10;;;6.90;99.90;;;;;;5133983;27;20042;-83
2022/11/29 07:00:26;;;;;;;33.05;12.02;;;7.10;99.90;;;;;;5133996;27;20090;-82
2022/11/29 07:03:10;;;;;;;45.05;12.75;;;7.20;99.90;;;;;;5136600;27;20475;-83
2022/11/29 07:05:36;;;;;;;35.80;12.85;;;7.30;99.90;;;;;;5135252;27;20053;-84
2022/11/29 07:08:05;;;;;;;46.22;12.65;;;7.10;99.90;;;;;;5098717;27;20312;-82
2022/11/29 07:10:34;;;;;;;50.45;13.35;;;7.50;99.90;;;;;;5133478;27;20043;-83
2022/11/29 07:13:00;;;;;;;37.38;11.38;;;7.20;99.90;;;;;;5133166;27;20147;-82
2022/11/29 07:15:27;;;;;;;46.67;13.25;;;7.40;99.90;;;;;;5115304;27;20548;-82
2022/11/29 07:18:00;;;;;;;43.20;13.25;;;7.50;99.90;;;;;;5133821;27;20099;-81
2022/11/29 07:20:37;;;;;;;34.17;12.68;;;7.40;99.90;;;;;;5132765;27;20059;-83
2022/11/29 07:23:27;;;;;;;46.30;11.85;;;7.10;99.90;;;;;;5098402;27;20083;-83
2022/11/29 07:26:13;;;;;;;33.35;10.60;;;7.60;99.90;;;;;;5133285;27;20496;-84
2022/11/29 07:28:54;;;;;;;36.50;9.85;;;7.30;99.90;;;;;;5132444;27;20067;-84
2022/11/29 07:31:38;;;;;;;34.83;9.60;;;8.20;99.90;;;;;;5133041;27;20097;-84
2022/11/29 07:34:38;;;;;;;32.58;9.20;;;7.60;99.90;;;;;;5132399;27;20035;-81
2022/11/29 07:37:23;;;;;;;34.15;9.10;;;7.70;99.90;;;;;;5133788;27;20054;-82
2022/11/29 07:39:58;;;;;;;33.95;9.30;;;7.50;99.90;;;;;;5115291;27;20043;-82
2022/11/29 07:42:23;;;;;;;40.03;9.93;;;7.90;99.90;;;;;;5133666;27;20103;-81
2022/11/29 07:44:54;;;;;;;32.72;9.25;;;9.20;99.90;;;;;;5133619;27;20471;-83
2022/11/29 07:47:20;;;;;;;33.42;9.63;;;7.80;99.90;;;;;;5133370;27;20549;-81
2022/11/29 07:49:46;;;;;;;28.77;8.60;;;8.10;99.90;;;;;;5133444;27;20086;-82
2022/11/29 07:52:14;;;;;;;38.08;8.85;;;7.80;99.90;;;;;;5115241;27;20043;-83
2022/11/29 07:54:40;;;;;;;37.25;9.32;;;8.00;99.90;;;;;;5132879;27;20490;-84
2022/11/29 07:57:05;;;;;;;32.70;8.98;;;8.30;99.90;;;;;;5133431;27;20051;-82
2022/11/29 07:59:31;;;;;;;38.80;8.52;;;7.70;99.90;;;;;;5132868;27;20495;-84
2022/11/29 08:01:57;;;;;;;32.45;9.07;;;7.90;99.90;;;;;;5115122;27;20490;-82
2022/11/29 08:04:23;;;;;;;36.53;9.30;;;8.00;99.90;;;;;;5133164;27;20051;-82
2022/11/29 08:06:49;;;;;;;34.38;8.57;;;9.10;99.90;;;;;;5114571;27;20765;-82
2022/11/29 08:09:15;;;;;;;35.17;8.05;;;7.80;99.90;;;;;;5132940;27;20039;-83
2022/11/29 08:11:41;;;;;;;28.83;8.02;;;8.80;99.90;;;;;;5114755;27;20458;-83
2022/11/29 08:14:07;;;;;;;27.88;7.57;;;8.60;99.90;;;;;;5133181;27;20053;-84
2022/11/29 08:16:33;;;;;;;39.50;7.57;;;8.60;99.90;;;;;;5133166;27;20043;-83
2022/11/29 08:18:59;;;;;;;31.75;6.85;;;9.20;99.90;;;;;;5133069;27;20143;-81
2022/11/29 08:21:25;;;;;;;24.08;6.72;;;8.50;99.90;;;;;;5115000;27;20488;-84
2022/11/29 08:23:51;;;;;;;34.03;6.72;;;8.20;99.90;;;;;;5132866;27;20055;-83
2022/11/29 08:26:19;;;;;;;30.55;5.60;;;9.10;99.90;;;;;;5133086;27;20043;-83
2022/11/29 08:28:45;;;;;;;19.92;5.78;;;8.60;99.90;;;;;;5132766;27;20050;-84
2022/11/29 08:31:12;;;;;;;25.73;6.38;;;8.60;99.90;;;;;;5133391;28;20823;-84
2022/11/29 08:33:40;;;;;;;29.13;5.70;;;9.00;99.90;;;;;;5133098;28;20086;-84
2022/11/29 08:36:06;;;;;;;25.15;6.45;;;8.50;99.90;;;;;;5133018;28;20042;-83
2022/11/29 08:38:31;;;;;;;29.50;5.90;;;8.40;99.90;;;;;;5132624;28;20479;-83
2022/11/29 08:41:05;;;;;;;30.88;6.40;;;8.70;99.90;;;;;;5135054;28;20504;-84
2022/11/29 08:43:30;;;;;;;31.55;5.68;;;8.70;99.90;;;;;;5135681;28;20035;-83
2022/11/29 08:45:56;;;;;;;30.65;7.45;;;8.70;99.90;;;;;;5134709;28;20149;-83
2022/11/29 08:48:22;;;;;;;27.98;7.15;;;9.10;99.90;;;;;;5114484;28;20047;-82
2022/11/29 08:50:50;;;;;;;32.88;7.57;;;8.20;99.90;;;;;;5114640;28;20093;-83
2022/11/29 08:56:00;;;;;;;32.60;8.05;;;8.30;99.90;;;;;;5132503;28;20510;-83
2022/11/29 08:58:26;;;;;;;30.35;7.32;;;8.20;99.90;;;;;;5114466;28;20047;-82
2022/11/29 09:00:51;;;;;;;25.33;7.47;;;8.90;99.90;;;;;;5114477;28;20047;-82
2022/11/29 09:06:10;;;;;;;24.35;6.43;;;9.20;99.90;;;;;;5132495;28;20506;-84
2022/11/29 09:08:36;;;;;;;20.55;5.78;;;8.50;99.90;;;;;;5114324;28;20104;-84
2022/11/29 09:11:12;;;;;;;29.15;6.18;;;8.30;99.90;;;;;;5116730;27;20491;-83
2022/11/29 09:13:39;;;;;;;30.57;5.57;;;8.80;99.90;;;;;;5118240;27;20050;-83
2022/11/29 09:16:07;;;;;;;24.83;5.97;;;8.80;99.90;;;;;;5118381;27;20093;-84
2022/11/29 09:18:32;;;;;;;22.48;6.00;;;8.60;99.90;;;;;;5118266;27;20115;-83
2022/11/29 09:20:58;;;;;;;25.70;6.43;;;9.90;99.90;;;;;;5118003;27;20055;-83
2022/11/29 09:23:24;;;;;;;30.50;8.10;;;8.90;99.90;;;;;;5136370;27;20494;-84
2022/11/29 09:25:49;;;;;;;28.58;8.25;;;9.10;99.90;;;;;;5117865;27;20091;-82
2022/11/29 09:28:15;;;;;;;28.65;7.70;;;9.30;99.90;;;;;;5136033;27;20086;-83
2022/11/29 09:30:41;;;;;;;29.80;8.73;;;8.80;99.90;;;;;;5136284;27;20115;-83
2022/11/29 09:33:07;;;;;;;27.50;8.75;;;9.90;99.90;;;;;;5100829;27;20078;-83
2022/11/29 09:35:33;;;;;;;37.60;14.57;;;9.10;99.90;;;;;;5117384;27;20051;-84
2022/11/29 09:37:59;;;;;;;29.75;13.75;;;9.20;99.90;;;;;;5117740;27;20045;-83
2022/11/29 09:40:31;;;;;;;28.80;12.43;;;9.30;99.90;;;;;;5136333;27;20503;-84
2022/11/29 09:43:09;;;;;;;28.15;14.38;;;9.90;99.90;;;;;;5136081;27;20058;-83
2022/11/29 09:45:39;;;;;;;28.23;13.32;;;9.50;99.90;;;;;;5117760;27;20051;-84
2022/11/29 09:48:08;;;;;;;29.60;13.30;;;9.60;99.90;;;;;;5135628;27;20521;-83
2022/11/29 09:50:39;;;;;;;27.52;14.35;;;9.20;99.90;;;;;;5117144;27;20126;-83
2022/11/29 09:53:33;;;;;;;28.63;14.02;;;9.80;99.90;;;;;;5136223;27;20054;-82
2022/11/29 09:56:29;;;;;;;25.35;13.35;;;9.50;99.90;;;;;;5135917;27;20100;-83
2022/11/29 09:59:23;;;;;;;33.08;13.68;;;9.30;99.90;;;;;;5135859;27;20352;-83
2022/11/29 10:01:59;;;;;;;27.13;13.82;;;9.70;99.90;;;;;;5135698;27;20108;-83
2022/11/29 10:04:29;;;;;;;30.17;14.10;;;9.50;99.90;;;;;;5135448;27;20043;-84
2022/11/29 10:07:15;;;;;;;28.58;13.55;;;9.50;99.90;;;;;;5135628;27;20125;-83
2022/11/29 10:09:46;;;;;;;32.35;12.48;;;9.40;99.90;;;;;;5135497;27;20039;-83
2022/11/29 10:12:18;;;;;;;24.83;11.48;;;9.30;99.90;;;;;;5117383;27;20057;-83
2022/11/29 10:14:44;;;;;;;23.38;11.25;;;9.50;99.90;;;;;;5135372;27;20047;-83
2022/11/29 10:17:48;;;;;;;17.25;10.63;;;10.20;99.90;;;;;;5135419;27;20043;-84
2022/11/29 10:20:16;;;;;;;20.50;9.93;;;9.50;99.90;;;;;;5112984;27;20051;-83
2022/11/29 10:22:48;;;;;;;24.55;11.25;;;10.20;99.90;;;;;;5142741;27;20043;-85
2022/11/29 10:25:23;;;;;;;24.10;10.90;;;9.70;99.90;;;;;;5139550;27;20051;-83
2022/11/29 10:27:49;;;;;;;24.75;11.15;;;9.80;99.90;;;;;;5117167;27;20047;-83
2022/11/29 10:30:15;;;;;;;26.08;11.75;;;9.70;99.90;;;;;;5135337;27;20051;-84
2022/11/29 10:32:42;;;;;;;;;;;10.10;99.90;;;;;;5120720;27;20043;-84
2022/11/29 10:35:14;;;;;;;24.88;10.82;;;9.40;99.90;;;;;;5155193;27;20310;-83
2022/11/29 10:37:40;;;;;;;16.55;9.75;;;10.10;99.90;;;;;;5155715;27;20045;-83
2022/11/29 10:40:14;;;;;;;20.67;10.18;;;9.50;99.90;;;;;;5137164;27;20401;-83
2022/11/29 10:42:53;;;;;;;22.33;10.80;;;9.90;99.90;;;;;;5155893;27;20102;-83
2022/11/29 10:45:24;;;;;;;24.67;10.88;;;10.60;99.90;;;;;;5139059;27;20046;-83
2022/11/29 10:47:53;;;;;;;21.88;10.35;;;10.00;99.90;;;;;;5155164;27;20041;-82
2022/11/29 10:50:30;;;;;;;23.40;10.43;;;8.90;99.90;;;;;;5155532;27;20477;-82
2022/11/29 10:53:14;;;;;;;22.63;9.30;;;10.20;99.90;;;;;;5155298;27;20486;-83
2022/11/29 10:55:59;;;;;;;18.98;9.43;;;9.90;99.90;;;;;;5137016;27;20051;-83
2022/11/29 10:58:27;;;;;;;17.13;9.05;;;10.00;99.90;;;;;;5119870;27;20043;-82
2022/11/29 11:00:56;;;;;;;19.40;8.63;;;9.80;99.90;;;;;;5155381;27;20058;-83
2022/11/29 11:03:34;;;;;;;18.58;8.88;;;9.90;99.90;;;;;;5155027;27;20045;-83
2022/11/29 11:06:16;;;;;;;15.48;8.32;;;9.30;99.90;;;;;;5155194;27;20046;-82
2022/11/29 11:08:45;;;;;;;18.60;9.10;;;9.60;99.90;;;;;;5136340;27;20490;-82
2022/11/29 11:11:11;;;;;;;20.45;11.52;;;9.80;99.90;;;;;;5155016;27;20047;-82
2022/11/29 11:13:38;;;;;;;;;;;9.60;99.90;;;;;;5155423;27;20382;-82
2022/11/29 11:16:14;;;;;;;20.30;8.75;;;9.70;99.90;;;;;;5136391;27;19926;-83
2022/11/29 11:18:40;;;;;;;14.40;7.77;;;10.60;99.90;;;;;;5136509;27;20047;-82
2022/11/29 11:21:09;;;;;;;14.23;8.30;;;9.80;99.90;;;;;;5154808;27;20336;-82
2022/11/29 11:23:38;;;;;;;17.48;8.48;;;10.50;99.90;;;;;;5154759;27;20039;-82
2022/11/29 11:26:10;;;;;;;21.55;9.25;;;9.60;99.90;;;;;;5154741;27;20505;-82
2022/11/29 11:28:48;;;;;;;17.67;9.02;;;10.00;99.90;;;;;;5135888;27;20066;-82
2022/11/29 11:31:14;;;;;;;19.77;9.60;;;9.70;99.90;;;;;;5136064;27;20054;-82
2022/11/29 11:33:41;;;;;;;;;;;9.80;99.90;;;;;;5135702;27;20139;-83
2022/11/29 11:36:12;;;;;;;18.65;8.30;;;10.10;99.90;;;;;;5154566;27;19923;-82
2022/11/29 11:39:11;;;;;;;9.65;5.78;;;10.10;99.90;;;;;;5154440;27;20054;-82
2022/11/29 11:44:31;;;;;;;9.07;5.57;;;10.20;99.90;;;;;;5154448;27;20047;-82
2022/11/29 11:46:59;;;;;;;9.63;5.07;;;9.70;99.90;;;;;;5153741;27;20611;-82
2022/11/29 11:49:29;;;;;;;11.43;5.13;;;9.90;99.90;;;;;;5135656;27;20555;-81
2022/11/29 11:51:57;;;;;;;6.28;4.10;;;10.00;99.90;;;;;;5154274;27;20039;-82
2022/11/29 11:54:23;;;;;;;5.63;3.55;;;9.70;99.90;;;;;;5154249;27;20464;-81
2022/11/29 11:56:49;;;;;;;4.35;3.70;;;10.80;99.90;;;;;;5154166;27;20099;-81
2022/11/29 11:59:20;;;;;;;5.43;3.60;;;9.60;99.90;;;;;;5154124;27;20544;-81
2022/11/29 12:01:46;;;;;;;4.93;3.55;;;9.90;99.90;;;;;;5135226;27;20447;-81
2022/11/29 12:04:23;;;;;;;5.72;3.03;;;9.70;99.90;;;;;;5154711;27;20045;-81
2022/11/29 12:06:54;;;;;;;5.03;3.38;;;9.80;99.90;;;;;;5154255;27;20058;-81
2022/11/29 12:09:40;;;;;;;3.38;3.08;;;9.50;99.90;;;;;;5153969;27;20457;-82
2022/11/29 12:12:26;;;;;;;5.47;2.83;;;9.60;99.90;;;;;;5154069;27;20047;-81
2022/11/29 12:15:00;;;;;;;5.07;3.00;;;9.90;99.90;;;;;;5153662;27;20054;-81
2022/11/29 12:17:31;;;;;;;6.35;4.15;;;9.50;99.90;;;;;;5135749;27;20049;-80
2022/11/29 12:20:11;;;;;;;9.18;5.82;;;9.50;99.90;;;;;;5154150;27;20486;-82
2022/11/29 12:22:47;;;;;;;8.95;7.10;;;9.20;99.90;;;;;;5135647;27;20058;-82
2022/11/29 12:25:35;;;;;;;10.13;7.50;;;9.90;99.90;;;;;;5153860;27;20042;-81
2022/11/29 12:28:00;;;;;;;11.82;7.82;;;9.90;99.90;;;;;;5117045;27;20051;-81
2022/11/29 12:30:26;;;;;;;13.27;8.43;;;9.60;99.90;;;;;;5152961;27;20066;-81
2022/11/29 12:32:58;;;;;;;15.73;8.45;;;9.60;99.90;;;;;;5153558;27;20267;-81
2022/11/29 12:35:29;;;;;;;19.75;9.45;;;9.40;99.90;;;;;;5153906;27;20149;-80
2022/11/29 12:38:14;;;;;;;13.30;9.80;;;9.30;99.90;;;;;;5153612;27;20061;-81
2022/11/29 12:40:53;;;;;;;14.43;9.35;;;9.50;99.90;;;;;;5153602;27;20402;-81
2022/11/29 12:43:38;;;;;;;13.35;8.80;;;9.20;99.90;;;;;;5134759;27;20070;-80
2022/11/29 12:46:23;;;;;;;13.55;9.40;;;9.20;99.90;;;;;;5157868;27;20375;-80
2022/11/29 12:49:06;;;;;;;16.33;10.20;;;9.20;99.90;;;;;;5157723;27;20041;-80
2022/11/29 12:51:35;;;;;;;13.60;10.18;;;9.20;99.90;;;;;;5122382;27;20047;-81
2022/11/29 12:54:28;;;;;;;15.15;10.20;;;9.40;99.90;;;;;;5157615;27;20137;-81
2022/11/29 12:56:59;;;;;;;13.77;10.35;;;9.00;99.90;;;;;;5157708;27;20137;-81
2022/11/29 12:59:34;;;;;;;13.82;10.07;;;9.30;99.90;;;;;;5157207;27;20039;-81
2022/11/29 13:02:33;;;;;;;16.58;10.73;;;8.80;99.90;;;;;;5157585;27;20050;-81
2022/11/29 13:05:17;;;;;;;20.55;11.00;;;9.20;99.90;;;;;;5157296;27;20058;-81
2022/11/29 13:08:17;;;;;;;19.77;11.30;;;8.80;99.90;;;;;;5157301;27;20510;-81
2022/11/29 13:10:51;;;;;;;15.85;11.10;;;9.00;99.90;;;;;;5147778;27;20042;-81
2022/11/29 13:13:27;;;;;;;18.27;11.15;;;9.20;99.90;;;;;;5144430;27;20045;-80
2022/11/29 13:16:26;;;;;;;14.98;11.18;;;9.30;99.90;;;;;;5119721;27;20126;-80
2022/11/29 13:19:12;;;;;;;13.50;10.13;;;9.20;99.90;;;;;;5146141;27;20035;-80
2022/11/29 13:21:50;;;;;;;17.07;11.27;;;9.40;99.90;;;;;;5128794;27;20398;-80
2022/11/29 13:24:27;;;;;;;12.63;9.68;;;9.10;99.90;;;;;;5157166;27;20748;-80
2022/11/29 13:26:54;;;;;;;15.85;10.80;;;9.30;99.90;;;;;;5138260;27;20055;-80
2022/11/29 13:29:20;;;;;;;18.45;12.60;;;9.50;99.90;;;;;;5138060;27;20066;-80
2022/11/29 13:31:47;;;;;;;24.88;11.40;;;9.10;99.90;;;;;;5156535;27;20046;-79
2022/11/29 13:34:24;;;;;;;14.38;11.07;;;9.40;99.90;;;;;;5135208;27;20055;-80
2022/11/29 13:37:05;;;;;;;15.45;11.35;;;9.30;99.90;;;;;;5141449;27;20150;-80
2022/11/29 13:39:54;;;;;;;16.38;11.35;;;9.40;99.90;;;;;;5144567;27;20035;-79